Time;durP1;ratioP1;P1;durP2;ratioP2;P2;SDS_P1;SDS_P2;PMS_P1;PMS_P2;Temp;Humidity;BMP_temperature;BMP_pressure;BME280_temperature;BME280_humidity;BME280_pressure;Samples;Min_cycle;Max_cycle;Signal;HPM_P1;HPM_P2
2021/03/04 00:00:10;;;;;;;;;;;19.00;48.20;;;;;;5052811;28;1254;-68
2021/03/04 00:02:36;;;;;;;;;;;18.90;48.20;;;;;;5052796;28;1297;-68
2021/03/04 00:05:01;;;;;;;;;;;18.90;48.20;;;;;;5052588;28;897;-68
2021/03/04 00:07:26;;;;;;;;;;;18.90;48.30;;;;;;5067453;28;1130;-69
2021/03/04 00:09:52;;;;;;;;;;;18.90;48.30;;;;;;5052723;28;1333;-68
2021/03/04 00:12:17;;;;;;;;;;;18.90;48.30;;;;;;5052200;28;1347;-69
2021/03/04 00:14:43;;;;;;;;;;;18.90;48.30;;;;;;5052210;28;1947;-68
2021/03/04 00:17:08;;;;;;;;;;;18.90;48.30;;;;;;5050737;28;1289;-69
2021/03/04 00:19:34;;;;;;;;;;;18.90;48.40;;;;;;5068052;28;1134;-68
2021/03/04 00:21:59;;;;;;;;;;;18.90;48.40;;;;;;5052190;28;1342;-69
2021/03/04 00:24:25;;;;;;;;;;;18.90;48.40;;;;;;5067654;28;1367;-68
2021/03/04 00:26:50;;;;;;;;;;;18.90;48.50;;;;;;5050496;28;1362;-68
2021/03/04 00:29:15;;;;;;;;;;;18.90;48.50;;;;;;5051610;28;1297;-69
2021/03/04 00:31:41;;;;;;;;;;;18.90;48.50;;;;;;5052518;28;1351;-68
2021/03/04 00:34:06;;;;;;;;;;;18.90;48.60;;;;;;5058200;28;1352;-68
2021/03/04 00:36:32;;;;;;;;;;;18.90;48.50;;;;;;5047534;28;1914;-69
2021/03/04 00:38:58;;;;;;;;;;;18.90;48.60;;;;;;5066242;28;1258;-69
2021/03/04 00:41:23;;;;;;;;;;;18.90;48.60;;;;;;5051729;28;1246;-69
2021/03/04 00:43:48;;;;;;;;;;;18.90;48.60;;;;;;5051493;28;1232;-69
2021/03/04 00:46:14;;;;;;;;;;;18.80;48.60;;;;;;5066226;28;1276;-69
2021/03/04 00:48:39;;;;;;;;;;;18.80;48.60;;;;;;5050841;28;1246;-69
2021/03/04 00:51:05;;;;;;;;;;;18.80;48.70;;;;;;5051172;28;1327;-69
2021/03/04 00:53:30;;;;;;;;;;;18.80;48.70;;;;;;5059534;28;1328;-69
2021/03/04 00:55:56;;;;;;;;;;;18.80;48.70;;;;;;5070115;28;1951;-69
2021/03/04 00:58:21;;;;;;;;;;;18.80;48.70;;;;;;5070266;28;1360;-69
2021/03/04 01:00:46;;;;;;;;;;;18.80;48.70;;;;;;5071076;28;1404;-69
2021/03/04 01:03:12;;;;;;;;;;;18.80;48.80;;;;;;5071363;28;1335;-69
2021/03/04 01:05:37;;;;;;;;;;;18.80;48.80;;;;;;5071661;28;1251;-68
2021/03/04 01:08:03;;;;;;;;;;;18.80;48.80;;;;;;5070582;28;1276;-69
2021/03/04 01:10:32;;;;;;;;;;;18.80;48.80;;;;;;5071449;28;1098;-69
2021/03/04 01:12:58;;;;;;;;;;;18.80;48.80;;;;;;5066557;28;1347;-68
2021/03/04 01:15:24;;;;;;;;;;;18.80;48.90;;;;;;5050915;28;1906;-68
2021/03/04 01:17:49;;;;;;;;;;;18.80;48.90;;;;;;5049490;28;1315;-69
2021/03/04 01:20:16;;;;;;;;;;;18.70;48.90;;;;;;5050814;28;1125;-69
2021/03/04 01:22:41;;;;;;;;;;;18.80;48.90;;;;;;5066737;28;1210;-69
2021/03/04 01:25:07;;;;;;;;;;;18.80;48.90;;;;;;5066331;28;1350;-69
2021/03/04 01:27:32;;;;;;;;;;;18.80;49.00;;;;;;5050375;28;1087;-68
2021/03/04 01:29:57;;;;;;;;;;;18.70;48.90;;;;;;5050632;28;1266;-69
2021/03/04 01:32:23;;;;;;;;;;;18.80;49.00;;;;;;5051009;28;1282;-69
2021/03/04 01:34:48;;;;;;;;;;;18.80;49.00;;;;;;5050565;28;1969;-69
2021/03/04 01:37:14;;;;;;;;;;;18.70;49.00;;;;;;5066118;28;1329;-69
2021/03/04 01:39:39;;;;;;;;;;;18.70;49.00;;;;;;5050488;28;1282;-69
2021/03/04 01:42:05;;;;;;;;;;;18.70;49.00;;;;;;5049294;28;1323;-69
2021/03/04 01:44:30;;;;;;;;;;;18.70;49.00;;;;;;5050558;28;1330;-69
2021/03/04 01:46:56;;;;;;;;;;;18.70;49.10;;;;;;5050937;28;973;-68
2021/03/04 01:49:21;;;;;;;;;;;18.70;49.10;;;;;;5048941;28;1334;-69
2021/03/04 01:51:46;;;;;;;;;;;18.70;49.10;;;;;;5050710;28;1282;-69
2021/03/04 01:54:12;;;;;;;;;;;18.70;49.10;;;;;;5065950;28;1083;-69
2021/03/04 01:56:37;;;;;;;;;;;18.70;49.10;;;;;;5066451;28;1935;-68
2021/03/04 01:59:03;;;;;;;;;;;18.70;49.20;;;;;;5069631;28;1287;-69
2021/03/04 02:01:28;;;;;;;;;;;18.70;49.10;;;;;;5054670;28;1304;-69
2021/03/04 02:03:54;;;;;;;;;;;18.70;49.20;;;;;;5054609;28;1344;-68
2021/03/04 02:06:19;;;;;;;;;;;18.70;49.20;;;;;;5055159;28;1345;-69
2021/03/04 02:08:48;;;;;;;;;;;18.70;49.20;;;;;;5053581;28;1255;-69
2021/03/04 02:11:13;;;;;;;;;;;18.70;49.50;;;;;;5069852;28;1283;-68
2021/03/04 02:13:56;;;;;;;;;;;18.70;49.30;;;;;;5053972;28;1311;-68
2021/03/04 02:16:22;;;;;;;;;;;18.70;49.30;;;;;;5069867;28;1910;-69
2021/03/04 02:18:52;;;;;;;;;;;18.70;49.30;;;;;;5069300;28;1342;-68
2021/03/04 02:21:22;;;;;;;;;;;18.60;49.20;;;;;;5054137;28;1257;-69
2021/03/04 02:23:47;;;;;;;;;;;18.60;49.30;;;;;;5064961;28;1267;-68
2021/03/04 02:26:14;;;;;;;;;;;18.60;49.30;;;;;;5053377;28;1251;-68
2021/03/04 02:28:40;;;;;;;;;;;18.60;49.30;;;;;;5053788;28;1324;-68
2021/03/04 02:31:06;;;;;;;;;;;18.60;49.30;;;;;;5045025;28;1295;-69
2021/03/04 02:33:31;;;;;;;;;;;18.60;49.30;;;;;;5061957;28;1187;-70
2021/03/04 02:35:58;;;;;;;;;;;18.60;49.40;;;;;;5056482;28;1964;-68
2021/03/04 02:38:23;;;;;;;;;;;18.60;49.40;;;;;;5052820;28;1211;-71
2021/03/04 02:40:49;;;;;;;;;;;18.60;49.40;;;;;;5055714;28;1288;-70
2021/03/04 02:43:15;;;;;;;;;;;18.60;49.40;;;;;;5054911;28;1227;-69
2021/03/04 02:45:41;;;;;;;;;;;18.60;49.40;;;;;;5055594;28;1179;-70
2021/03/04 02:48:06;;;;;;;;;;;18.60;49.50;;;;;;5052276;28;1349;-70
2021/03/04 02:50:32;;;;;;;;;;;18.60;49.40;;;;;;5059103;28;1280;-69
2021/03/04 02:52:57;;;;;;;;;;;18.60;49.40;;;;;;5055448;28;1319;-68
2021/03/04 02:55:22;;;;;;;;;;;18.60;49.50;;;;;;5052435;28;1959;-70
2021/03/04 02:57:48;;;;;;;;;;;18.60;49.50;;;;;;5044775;28;1282;-69
2021/03/04 03:00:17;;;;;;;;;;;18.60;49.50;;;;;;5056387;28;1255;-67
2021/03/04 03:02:42;;;;;;;;;;;18.60;49.50;;;;;;5052691;28;1331;-69
2021/03/04 03:05:08;;;;;;;;;;;18.60;49.50;;;;;;5059367;28;1219;-69
2021/03/04 03:07:36;;;;;;;;;;;18.60;49.60;;;;;;5055005;28;1226;-67
2021/03/04 03:10:01;;;;;;;;;;;18.60;49.60;;;;;;5053506;28;1215;-69
2021/03/04 03:12:26;;;;;;;;;;;18.60;49.60;;;;;;5059968;28;1283;-69
2021/03/04 03:14:52;;;;;;;;;;;18.60;49.60;;;;;;5059200;28;1901;-69
2021/03/04 03:17:17;;;;;;;;;;;18.60;49.60;;;;;;5061642;28;1278;-69
2021/03/04 03:19:43;;;;;;;;;;;18.60;49.60;;;;;;5051697;28;1200;-70
2021/03/04 03:22:08;;;;;;;;;;;18.60;49.60;;;;;;5053694;28;1358;-71
2021/03/04 03:24:33;;;;;;;;;;;18.60;49.70;;;;;;5064770;28;1180;-69
2021/03/04 03:26:59;;;;;;;;;;;18.50;49.60;;;;;;5065447;28;1310;-69
2021/03/04 03:29:24;;;;;;;;;;;18.60;49.70;;;;;;5052607;28;1326;-70
2021/03/04 03:31:50;;;;;;;;;;;18.50;49.70;;;;;;5055293;28;1279;-69
2021/03/04 03:34:15;;;;;;;;;;;18.50;49.70;;;;;;5057454;28;1310;-69
2021/03/04 03:36:41;;;;;;;;;;;18.50;49.70;;;;;;5057431;28;1938;-70
2021/03/04 03:39:06;;;;;;;;;;;18.50;49.70;;;;;;5056944;28;1217;-70
2021/03/04 03:41:32;;;;;;;;;;;18.50;49.70;;;;;;5058472;28;1310;-71
2021/03/04 03:43:58;;;;;;;;;;;18.50;49.70;;;;;;5052521;28;1215;-69
2021/03/04 03:46:23;;;;;;;;;;;18.50;49.80;;;;;;5069854;28;1377;-68
2021/03/04 03:48:49;;;;;;;;;;;18.50;49.80;;;;;;5068601;28;1397;-70
2021/03/04 03:51:14;;;;;;;;;;;18.50;50.40;;;;;;5069035;28;1266;-69
2021/03/04 03:53:39;;;;;;;;;;;18.50;49.80;;;;;;5069304;28;1316;-67
2021/03/04 03:56:05;;;;;;;;;;;18.50;49.80;;;;;;5069281;28;1957;-69
2021/03/04 03:58:30;;;;;;;;;;;18.50;49.80;;;;;;5053134;28;1250;-68
2021/03/04 04:00:56;;;;;;;;;;;18.50;49.80;;;;;;5068548;28;1346;-68
2021/03/04 04:03:22;;;;;;;;;;;18.50;49.90;;;;;;5069647;28;1250;-70
2021/03/04 04:05:47;;;;;;;;;;;18.50;49.90;;;;;;5069167;28;1304;-70
2021/03/04 04:08:12;;;;;;;;;;;18.50;49.90;;;;;;5068339;28;1075;-69
2021/03/04 04:10:38;;;;;;;;;;;18.50;49.60;;;;;;5068674;28;1358;-70
2021/03/04 04:13:03;;;;;;;;;;;18.50;49.40;;;;;;5069177;28;1368;-70
2021/03/04 04:15:29;;;;;;;;;;;18.60;49.50;;;;;;5053300;28;1906;-69
2021/03/04 04:17:55;;;;;;;;;;;18.60;49.40;;;;;;5051593;28;1290;-69
2021/03/04 04:20:20;;;;;;;;;;;18.70;49.40;;;;;;5068129;28;1271;-72
2021/03/04 04:22:46;;;;;;;;;;;18.70;49.20;;;;;;5052266;28;1310;-71
2021/03/04 04:25:12;;;;;;;;;;;18.90;49.10;;;;;;5068659;28;1102;-71
2021/03/04 04:27:37;;;;;;;;;;;19.00;49.00;;;;;;5053093;28;1201;-70
2021/03/04 04:30:04;;;;;;;;;;;19.10;48.70;;;;;;5053643;28;1290;-70
2021/03/04 04:32:29;;;;;;;;;;;19.20;48.50;;;;;;5068936;28;1310;-70
2021/03/04 04:34:54;;;;;;;;;;;19.30;48.30;;;;;;5052571;28;1914;-70
2021/03/04 04:37:20;;;;;;;;;;;19.40;48.20;;;;;;5052503;28;1365;-70
2021/03/04 04:39:45;;;;;;;;;;;19.50;47.90;;;;;;5052793;28;1269;-70
2021/03/04 04:42:11;;;;;;;;;;;19.60;47.70;;;;;;5053000;28;1307;-70
2021/03/04 04:44:36;;;;;;;;;;;19.70;47.60;;;;;;5051733;28;1425;-70
2021/03/04 04:47:02;;;;;;;;;;;19.80;47.50;;;;;;5052985;28;1323;-70
2021/03/04 04:49:27;;;;;;;;;;;19.80;47.30;;;;;;5067986;28;1319;-70
2021/03/04 04:51:52;;;;;;;;;;;19.90;47.10;;;;;;5052654;28;1340;-70
2021/03/04 04:54:18;;;;;;;;;;;20.00;47.00;;;;;;5068218;28;1330;-70
2021/03/04 04:56:43;;;;;;;;;;;20.00;46.90;;;;;;5052529;28;1940;-70
2021/03/04 04:59:09;;;;;;;;;;;20.10;46.90;;;;;;5052152;28;1087;-69
2021/03/04 05:01:34;;;;;;;;;;;20.10;46.80;;;;;;5053128;28;1357;-70
2021/03/04 05:04:00;;;;;;;;;;;20.20;46.70;;;;;;5052735;28;1271;-70
2021/03/04 05:06:25;;;;;;;;;;;20.20;46.70;;;;;;5052332;28;1286;-70
2021/03/04 05:08:50;;;;;;;;;;;20.20;46.60;;;;;;5050329;28;1082;-70
2021/03/04 05:11:16;;;;;;;;;;;20.20;46.50;;;;;;5052121;28;1321;-71
2021/03/04 05:13:41;;;;;;;;;;;20.30;46.50;;;;;;5069016;28;1106;-69
2021/03/04 05:16:07;;;;;;;;;;;20.30;46.40;;;;;;5054637;28;1991;-70
2021/03/04 05:18:32;;;;;;;;;;;20.30;46.40;;;;;;5071694;28;1051;-70
2021/03/04 05:20:58;;;;;;;;;;;20.40;46.30;;;;;;5072199;28;1240;-70
2021/03/04 05:23:23;;;;;;;;;;;20.40;46.30;;;;;;5072403;28;1315;-71
2021/03/04 05:25:48;;;;;;;;;;;20.40;46.30;;;;;;5072958;28;1363;-70
2021/03/04 05:28:15;;;;;;;;;;;20.50;46.20;;;;;;5052791;28;1146;-70
2021/03/04 05:30:40;;;;;;;;;;;20.50;46.20;;;;;;5051125;28;1317;-70
2021/03/04 05:33:06;;;;;;;;;;;20.50;46.20;;;;;;5067371;28;1366;-70
2021/03/04 05:35:31;;;;;;;;;;;20.50;46.70;;;;;;5067633;28;1953;-68
2021/03/04 05:37:56;;;;;;;;;;;20.60;46.20;;;;;;5050148;28;1281;-71
2021/03/04 05:40:22;;;;;;;;;;;20.60;46.20;;;;;;5052065;28;1323;-70
2021/03/04 05:42:48;;;;;;;;;;;20.60;46.10;;;;;;5050711;28;1299;-70
2021/03/04 05:45:13;;;;;;;;;;;20.60;46.10;;;;;;5067734;28;1284;-71
2021/03/04 05:47:40;;;;;;;;;;;20.70;46.10;;;;;;5050090;28;1310;-70
2021/03/04 05:50:06;;;;;;;;;;;20.70;46.00;;;;;;5067239;28;1281;-70
2021/03/04 05:52:34;;;;;;;;;;;20.70;46.00;;;;;;5052000;28;1322;-69
2021/03/04 05:55:00;;;;;;;;;;;20.70;46.00;;;;;;5067602;28;1894;-69
2021/03/04 05:57:25;;;;;;;;;;;20.80;46.00;;;;;;5051459;28;1283;-70
2021/03/04 05:59:51;;;;;;;;;;;20.80;46.00;;;;;;5067779;28;1073;-71
2021/03/04 06:02:16;;;;;;;;;;;20.80;46.00;;;;;;5052106;28;1298;-69
2021/03/04 06:04:42;;;;;;;;;;;20.80;45.90;;;;;;5067182;28;1325;-70
2021/03/04 06:07:08;;;;;;;;;;;20.80;45.90;;;;;;5066699;28;1295;-69
2021/03/04 06:09:33;;;;;;;;;;;20.80;45.90;;;;;;5051665;28;1057;-69
2021/03/04 06:12:02;;;;;;;;;;;20.80;45.90;;;;;;5051822;28;1355;-68
2021/03/04 06:14:27;;;;;;;;;;;20.90;45.90;;;;;;5052196;28;1264;-70
2021/03/04 06:16:53;;;;;;;;;;;20.90;45.80;;;;;;5051834;28;1951;-70
2021/03/04 06:19:19;;;;;;;;;;;20.90;45.80;;;;;;5066218;28;1352;-70
2021/03/04 06:21:44;;;;;;;;;;;20.90;45.80;;;;;;5052433;28;1352;-72
2021/03/04 06:24:16;;;;;;;;;;;21.00;45.80;;;;;;5067544;28;1417;-71
2021/03/04 06:26:41;;;;;;;;;;;21.00;45.80;;;;;;5067068;28;1340;-70
2021/03/04 06:29:13;;;;;;;;;;;21.00;45.80;;;;;;5066443;28;1402;-71
2021/03/04 06:31:39;;;;;;;;;;;21.00;45.80;;;;;;5051135;28;1336;-69
2021/03/04 06:34:14;;;;;;;;;;;21.00;45.80;;;;;;5051627;28;1173;-70
2021/03/04 06:36:39;;;;;;;;;;;21.00;45.80;;;;;;5051682;28;1906;-67
2021/03/04 06:39:05;;;;;;;;;;;21.00;45.80;;;;;;5051007;28;1245;-70
2021/03/04 06:41:30;;;;;;;;;;;21.00;45.90;;;;;;5050577;28;1371;-70
2021/03/04 06:44:00;;;;;;;;;;;21.00;45.90;;;;;;5069540;28;1345;-70
2021/03/04 06:46:25;;;;;;;;;;;21.00;45.90;;;;;;5053426;28;1564;-71
2021/03/04 06:48:51;;;;;;;;;;;21.00;46.00;;;;;;5061195;28;2168;-70
2021/03/04 06:51:16;;;;;;;;;;;21.00;46.00;;;;;;5062520;28;1314;-70
2021/03/04 06:53:48;;;;;;;;;;;21.00;46.10;;;;;;5054141;28;1171;-69
2021/03/04 06:56:13;;;;;;;;;;;20.90;46.00;;;;;;5053959;28;1894;-69
2021/03/04 06:58:40;;;;;;;;;;;20.90;46.10;;;;;;5052740;28;945;-69
2021/03/04 07:01:09;;;;;;;;;;;20.90;46.70;;;;;;5067547;28;1325;-69
2021/03/04 07:03:35;;;;;;;;;;;20.90;46.20;;;;;;5072616;28;1090;-68
2021/03/04 07:06:01;;;;;;;;;;;20.80;46.20;;;;;;5073179;28;1333;-70
2021/03/04 07:08:27;;;;;;;;;;;20.80;46.40;;;;;;5073383;28;1301;-70
2021/03/04 07:10:52;;;;;;;;;;;20.80;46.40;;;;;;5073133;28;1298;-71
2021/03/04 07:13:17;;;;;;;;;;;20.80;46.50;;;;;;5074870;28;1307;-70
2021/03/04 07:15:43;;;;;;;;;;;20.80;46.50;;;;;;5072881;28;1893;-70
2021/03/04 07:18:08;;;;;;;;;;;20.80;46.60;;;;;;5073775;28;1274;-70
2021/03/04 07:20:34;;;;;;;;;;;20.70;46.60;;;;;;5073165;28;1331;-70
2021/03/04 07:22:59;;;;;;;;;;;20.70;46.60;;;;;;5056834;28;1329;-69
2021/03/04 07:25:25;;;;;;;;;;;20.70;46.70;;;;;;5073974;28;1293;-71
2021/03/04 07:27:50;;;;;;;;;;;20.70;46.80;;;;;;5058899;28;1086;-71
2021/03/04 07:30:16;;;;;;;;;;;20.70;46.80;;;;;;5054047;28;1330;-70
2021/03/04 07:32:41;;;;;;;;;;;20.60;46.80;;;;;;5054074;28;1299;-71
2021/03/04 07:35:10;;;;;;;;;;;20.60;46.90;;;;;;5052249;28;1914;-72
2021/03/04 07:37:38;;;;;;;;;;;20.60;47.00;;;;;;5055861;28;1341;-70
2021/03/04 07:40:04;;;;;;;;;;;20.60;47.00;;;;;;5069501;28;1273;-72
2021/03/04 07:42:29;;;;;;;;;;;20.60;47.10;;;;;;5054280;28;1274;-71
2021/03/04 07:44:55;;;;;;;;;;;20.50;47.10;;;;;;5053422;28;1278;-71
2021/03/04 07:47:24;;;;;;;;;;;20.50;47.10;;;;;;5069219;28;1243;-69
2021/03/04 07:49:49;;;;;;;;;;;20.50;47.20;;;;;;5069541;28;1320;-71
2021/03/04 07:52:25;;;;;;;;;;;20.50;47.20;;;;;;5069231;28;1309;-71
2021/03/04 07:54:51;;;;;;;;;;;20.40;47.20;;;;;;5054224;28;1307;-71
2021/03/04 07:57:17;;;;;;;;;;;20.40;47.30;;;;;;5068229;28;1955;-70
2021/03/04 07:59:56;;;;;;;;;;;20.50;47.30;;;;;;5052389;28;1361;-68
2021/03/04 08:02:22;;;;;;;;;;;20.40;47.40;;;;;;5053677;28;1317;-69
2021/03/04 08:04:47;;;;;;;;;;;20.40;47.40;;;;;;5054175;28;1253;-70
2021/03/04 08:07:12;;;;;;;;;;;20.40;47.50;;;;;;5068857;28;1296;-70
2021/03/04 08:09:38;;;;;;;;;;;20.40;47.50;;;;;;5068908;28;1368;-70
2021/03/04 08:12:07;;;;;;;;;;;20.30;47.50;;;;;;5052975;28;1370;-69
2021/03/04 08:14:32;;;;;;;;;;;20.30;47.50;;;;;;5069076;28;1264;-70
2021/03/04 08:16:58;;;;;;;;;;;20.30;47.60;;;;;;5053472;28;1906;-71
2021/03/04 08:19:27;;;;;;;;;;;20.30;47.60;;;;;;5053171;28;1074;-69
2021/03/04 08:21:53;;;;;;;;;;;20.30;47.70;;;;;;5053751;28;1321;-71
2021/03/04 08:24:19;;;;;;;;;;;20.20;47.70;;;;;;5069295;28;1341;-71
2021/03/04 08:26:44;;;;;;;;;;;20.20;47.80;;;;;;5069072;28;1327;-71
2021/03/04 08:29:10;;;;;;;;;;;20.20;47.80;;;;;;5067873;28;1295;-71
2021/03/04 08:31:45;;;;;;;;;;;20.20;47.90;;;;;;5084449;22;2669;-65
2021/03/04 08:34:11;;;;;;;;;;;20.20;47.90;;;;;;5023078;28;1221;-66
2021/03/04 08:36:43;;;;;;;;;;;20.20;47.90;;;;;;5021222;28;1906;-66
2021/03/04 08:39:08;;;;;;;;;;;20.20;48.00;;;;;;5023125;28;1493;-66
2021/03/04 08:41:34;;;;;;;;;;;20.10;48.00;;;;;;5046111;28;1441;-65
2021/03/04 08:44:16;;;;;;;;;;;20.10;48.00;;;;;;5032153;28;1420;-66
2021/03/04 08:46:46;;;;;;;;;;;20.10;48.00;;;;;;5031761;28;1417;-65
2021/03/04 08:49:14;;;;;;;;;;;20.10;48.10;;;;;;5032273;28;1388;-66
2021/03/04 08:51:43;;;;;;;;;;;20.10;48.10;;;;;;5015351;28;1705;-66
2021/03/04 08:54:12;;;;;;;;;;;20.10;48.20;;;;;;5032082;28;1406;-66
2021/03/04 08:56:49;;;;;;;;;;;20.10;48.20;;;;;;5031942;28;1902;-66
2021/03/04 08:59:24;;;;;;;;;;;20.00;48.20;;;;;;5015000;28;1632;-65
2021/03/04 09:01:50;;;;;;;;;;;20.00;48.20;;;;;;5031734;28;1286;-66
2021/03/04 09:04:16;;;;;;;;;;;20.00;48.30;;;;;;5031469;28;1380;-66
2021/03/04 09:06:41;;;;;;;;;;;20.00;48.30;;;;;;5031227;28;1422;-66
2021/03/04 09:09:07;;;;;;;;;;;20.00;48.30;;;;;;5032035;28;1661;-64
2021/03/04 09:11:34;;;;;;;;;;;20.00;48.40;;;;;;5032747;28;1669;-67
2021/03/04 09:14:00;;;;;;;;;;;20.00;48.40;;;;;;5032519;28;1406;-65
2021/03/04 09:16:25;;;;;;;;;;;19.90;48.30;;;;;;5031494;28;1887;-65
2021/03/04 09:18:51;;;;;;;;;;;19.90;48.40;;;;;;5032120;28;1347;-66
2021/03/04 09:21:19;;;;;;;;;;;19.90;48.40;;;;;;5031751;28;1620;-66
2021/03/04 09:23:45;;;;;;;;;;;19.90;48.40;;;;;;5031694;28;1432;-66
2021/03/04 09:26:10;;;;;;;;;;;19.90;48.50;;;;;;5033569;28;1147;-65
2021/03/04 09:28:36;;;;;;;;;;;19.90;48.50;;;;;;5034419;28;1395;-66
2021/03/04 09:31:08;;;;;;;;;;;19.90;48.50;;;;;;5031415;28;1266;-65
2021/03/04 09:33:34;;;;;;;;;;;19.90;48.50;;;;;;5032102;28;1605;-65
2021/03/04 09:36:00;;;;;;;;;;;19.90;48.50;;;;;;5031533;28;1902;-65
2021/03/04 09:38:27;;;;;;;;;;;19.80;48.60;;;;;;5032659;28;1465;-66
2021/03/04 09:40:52;;;;;;;;;;;19.80;48.60;;;;;;5041439;28;1598;-66
2021/03/04 09:43:19;;;;;;;;;;;19.80;48.60;;;;;;5032695;28;1483;-66
2021/03/04 09:45:45;;;;;;;;;;;19.80;48.70;;;;;;5032383;28;1395;-66
2021/03/04 09:48:11;;;;;;;;;;;19.80;48.70;;;;;;5031577;28;1620;-66
2021/03/04 09:50:36;;;;;;;;;;;19.80;48.70;;;;;;5030924;28;970;-66
2021/03/04 09:53:02;;;;;;;;;;;19.80;48.80;;;;;;5032342;28;1719;-67
2021/03/04 09:55:33;;;;;;;;;;;19.80;48.80;;;;;;5019962;28;1894;-63
2021/03/04 09:57:58;;;;;;;;;;;19.80;48.80;;;;;;5027640;28;1387;-67
2021/03/04 10:00:24;;;;;;;;;;;19.80;48.90;;;;;;5030059;28;1492;-70
2021/03/04 10:02:51;;;;;;;;;;;19.70;48.80;;;;;;5031938;28;1669;-68
2021/03/04 10:05:20;;;;;;;;;;;19.70;48.90;;;;;;5031354;28;1368;-69
2021/03/04 10:07:49;;;;;;;;;;;19.70;48.90;;;;;;5028441;28;1367;-66
2021/03/04 10:10:18;;;;;;;;;;;19.70;49.00;;;;;;5030753;28;1484;-65
2021/03/04 10:12:47;;;;;;;;;;;19.70;49.00;;;;;;5031395;28;1380;-65
2021/03/04 10:15:22;;;;;;;;;;;19.70;49.00;;;;;;5031096;28;1902;-63
2021/03/04 10:17:47;;;;;;;;;;;19.70;49.10;;;;;;5032099;28;1381;-64
2021/03/04 10:20:13;;;;;;;;;;;19.70;49.10;;;;;;5035311;28;1576;-65
2021/03/04 10:22:38;;;;;;;;;;;19.60;49.10;;;;;;5035326;28;1374;-63
2021/03/04 10:25:04;;;;;;;;;;;19.60;49.10;;;;;;5035610;28;1403;-67
2021/03/04 10:27:29;;;;;;;;;;;19.70;49.20;;;;;;5039177;28;1486;-63
2021/03/04 10:29:55;;;;;;;;;;;19.60;49.20;;;;;;5035932;28;1393;-64
2021/03/04 10:32:20;;;;;;;;;;;19.60;49.20;;;;;;5035282;28;1337;-65
2021/03/04 10:34:45;;;;;;;;;;;19.70;49.30;;;;;;5035797;28;1283;-64
2021/03/04 10:37:11;;;;;;;;;;;19.60;49.20;;;;;;5034955;28;1910;-65
2021/03/04 10:39:36;;;;;;;;;;;19.60;49.30;;;;;;5024730;28;1754;-64
2021/03/04 10:42:02;;;;;;;;;;;19.60;49.20;;;;;;5038913;28;1927;-65
2021/03/04 10:44:27;;;;;;;;;;;19.60;49.30;;;;;;5034775;28;1680;-65
2021/03/04 10:46:52;;;;;;;;;;;19.60;49.30;;;;;;5033611;28;1689;-64
2021/03/04 10:49:18;;;;;;;;;;;19.60;49.30;;;;;;5035484;28;1339;-64
2021/03/04 10:51:43;;;;;;;;;;;19.60;49.40;;;;;;5034953;28;1284;-65
2021/03/04 10:54:09;;;;;;;;;;;19.60;49.40;;;;;;5034198;28;1435;-65
2021/03/04 10:56:34;;;;;;;;;;;19.60;49.40;;;;;;5034317;28;1898;-68
2021/03/04 10:59:00;;;;;;;;;;;19.60;49.40;;;;;;5033990;28;1425;-65
2021/03/04 11:01:25;;;;;;;;;;;19.60;49.40;;;;;;5034374;28;1614;-63
2021/03/04 11:03:50;;;;;;;;;;;19.50;49.40;;;;;;5032034;28;1900;-63
2021/03/04 11:06:16;;;;;;;;;;;19.50;49.40;;;;;;5033868;28;1723;-65
2021/03/04 11:08:41;;;;;;;;;;;19.50;49.40;;;;;;5032176;28;1981;-63
2021/03/04 11:11:07;;;;;;;;;;;19.50;49.40;;;;;;5033248;28;1395;-64
2021/03/04 11:13:32;;;;;;;;;;;19.50;49.40;;;;;;5033804;28;1309;-63
2021/03/04 11:15:58;;;;;;;;;;;19.50;49.50;;;;;;5026503;28;1923;-63
2021/03/04 11:18:23;;;;;;;;;;;19.50;49.50;;;;;;5028028;28;1779;-66
2021/03/04 11:20:49;;;;;;;;;;;19.50;49.50;;;;;;5031402;28;1314;-64
2021/03/04 11:23:14;;;;;;;;;;;19.50;49.50;;;;;;5032850;28;1652;-65
2021/03/04 11:25:39;;;;;;;;;;;19.50;49.50;;;;;;5032383;28;1260;-65
2021/03/04 11:28:06;;;;;;;;;;;19.50;49.50;;;;;;5036064;28;1110;-64
2021/03/04 11:30:33;;;;;;;;;;;19.50;49.50;;;;;;5031103;28;1274;-64
2021/03/04 11:32:58;;;;;;;;;;;19.50;49.50;;;;;;5031290;28;1302;-64
2021/03/04 11:35:29;;;;;;;;;;;19.50;49.50;;;;;;5039626;28;1971;-64
2021/03/04 11:37:55;;;;;;;;;;;19.50;49.50;;;;;;5028594;28;1752;-64
2021/03/04 11:40:20;;;;;;;;;;;19.40;49.50;;;;;;5030641;28;1185;-64
2021/03/04 11:42:46;;;;;;;;;;;19.40;49.50;;;;;;5032397;28;1300;-64
2021/03/04 11:45:11;;;;;;;;;;;19.50;49.60;;;;;;5032227;28;1068;-64
2021/03/04 11:47:37;;;;;;;;;;;19.50;49.60;;;;;;5030724;28;1237;-67
2021/03/04 11:50:02;;;;;;;;;;;19.50;49.60;;;;;;5031782;28;1424;-64
2021/03/04 11:52:28;;;;;;;;;;;19.50;49.60;;;;;;5030512;28;1300;-64
2021/03/04 11:54:53;;;;;;;;;;;19.50;49.60;;;;;;5032222;28;1320;-65
2021/03/04 11:57:19;;;;;;;;;;;19.50;49.60;;;;;;5031400;28;1894;-65
2021/03/04 11:59:44;;;;;;;;;;;19.40;49.50;;;;;;5031624;28;1308;-64
2021/03/04 12:02:09;;;;;;;;;;;19.50;49.60;;;;;;5032087;28;1262;-66
2021/03/04 12:04:35;;;;;;;;;;;19.50;49.60;;;;;;5031837;28;1236;-64
2021/03/04 12:07:00;;;;;;;;;;;19.50;49.60;;;;;;5032582;28;1001;-64
2021/03/04 12:09:26;;;;;;;;;;;19.40;49.50;;;;;;5030781;28;1064;-64
2021/03/04 12:11:52;;;;;;;;;;;19.50;49.60;;;;;;5044422;28;1304;-64
2021/03/04 12:14:17;;;;;;;;;;;19.50;49.60;;;;;;5033397;28;1280;-63
2021/03/04 12:16:43;;;;;;;;;;;19.50;49.60;;;;;;5032389;28;1891;-64
2021/03/04 12:19:08;;;;;;;;;;;19.50;49.60;;;;;;5026640;28;1174;-64
2021/03/04 12:21:33;;;;;;;;;;;19.40;49.50;;;;;;5024750;28;1292;-64
2021/03/04 12:23:59;;;;;;;;;;;19.40;49.50;;;;;;5022808;28;1267;-65
2021/03/04 12:26:25;;;;;;;;;;;19.50;49.60;;;;;;5004741;28;1205;-65
2021/03/04 12:28:51;;;;;;;;;;;19.50;49.60;;;;;;5023424;28;1325;-65
2021/03/04 12:31:16;;;;;;;;;;;19.50;49.60;;;;;;5023635;28;1381;-66
2021/03/04 12:33:42;;;;;;;;;;;19.50;49.60;;;;;;5024440;28;1101;-65
2021/03/04 12:36:07;;;;;;;;;;;19.50;49.60;;;;;;5021789;28;1902;-65
2021/03/04 12:38:33;;;;;;;;;;;19.50;49.60;;;;;;5022338;28;1312;-65
2021/03/04 12:40:58;;;;;;;;;;;19.50;49.60;;;;;;5021372;28;1161;-65
2021/03/04 12:43:23;;;;;;;;;;;19.50;49.60;;;;;;5027209;28;1293;-64
2021/03/04 12:45:49;;;;;;;;;;;19.50;49.60;;;;;;5031671;28;1033;-64
2021/03/04 12:48:15;;;;;;;;;;;19.50;49.60;;;;;;5031492;28;1334;-64
2021/03/04 12:50:40;;;;;;;;;;;19.50;49.60;;;;;;5032260;28;1272;-64
2021/03/04 12:53:06;;;;;;;;;;;19.50;49.60;;;;;;5024598;28;1291;-65
2021/03/04 12:55:31;;;;;;;;;;;19.40;49.40;;;;;;5021401;28;1898;-65
2021/03/04 12:57:57;;;;;;;;;;;19.50;49.50;;;;;;5023052;28;1330;-64
2021/03/04 13:00:22;;;;;;;;;;;19.60;49.40;;;;;;5022785;28;1165;-65
2021/03/04 13:02:48;;;;;;;;;;;19.70;49.30;;;;;;5032360;28;1342;-64
2021/03/04 13:05:13;;;;;;;;;;;19.80;49.20;;;;;;5023992;28;1196;-65
2021/03/04 13:07:40;;;;;;;;;;;19.80;49.00;;;;;;5031747;28;1203;-64
2021/03/04 13:10:06;;;;;;;;;;;20.00;48.80;;;;;;5019572;28;1236;-65
2021/03/04 13:12:31;;;;;;;;;;;20.10;48.60;;;;;;5024030;28;1281;-64
2021/03/04 13:14:57;;;;;;;;;;;20.20;48.30;;;;;;5020431;28;1248;-64
2021/03/04 13:17:22;;;;;;;;;;;20.30;48.10;;;;;;5021370;28;1894;-64
2021/03/04 13:19:48;;;;;;;;;;;20.40;48.00;;;;;;5022256;28;1176;-64
2021/03/04 13:22:13;;;;;;;;;;;20.40;47.70;;;;;;5023145;28;1250;-64
2021/03/04 13:24:38;;;;;;;;;;;20.50;48.30;;;;;;5011638;28;1145;-64
2021/03/04 13:27:04;;;;;;;;;;;20.50;47.60;;;;;;5033354;28;1154;-65
2021/03/04 13:29:29;;;;;;;;;;;20.60;47.50;;;;;;5030896;28;1291;-64
2021/03/04 13:31:55;;;;;;;;;;;20.60;47.30;;;;;;5028888;28;1342;-65
2021/03/04 13:34:20;;;;;;;;;;;20.70;47.30;;;;;;5030955;28;1237;-64
2021/03/04 13:36:46;;;;;;;;;;;20.70;47.20;;;;;;5030249;28;1893;-65
2021/03/04 13:39:11;;;;;;;;;;;20.80;47.20;;;;;;5030971;28;1080;-64
2021/03/04 13:41:36;;;;;;;;;;;20.80;47.10;;;;;;5042244;28;1291;-64
2021/03/04 13:44:02;;;;;;;;;;;20.80;47.10;;;;;;5030314;28;947;-65
2021/03/04 13:46:27;;;;;;;;;;;20.90;47.00;;;;;;5030149;28;1279;-65
2021/03/04 13:48:53;;;;;;;;;;;20.90;46.90;;;;;;5029927;28;1304;-65
2021/03/04 13:51:18;;;;;;;;;;;21.00;46.90;;;;;;5028665;28;1286;-65
2021/03/04 13:53:44;;;;;;;;;;;21.00;46.80;;;;;;5033854;28;1300;-65
2021/03/04 13:56:10;;;;;;;;;;;21.00;46.70;;;;;;5033677;28;1948;-65
2021/03/04 13:58:35;;;;;;;;;;;21.00;46.70;;;;;;5029589;28;1209;-65
2021/03/04 14:01:01;;;;;;;;;;;21.10;46.70;;;;;;5035302;28;1056;-64
2021/03/04 14:03:26;;;;;;;;;;;21.10;46.70;;;;;;5035014;28;1299;-65
2021/03/04 14:05:52;;;;;;;;;;;21.10;46.70;;;;;;5034818;28;1060;-65
2021/03/04 14:08:17;;;;;;;;;;;21.10;46.70;;;;;;5034262;28;1278;-63
2021/03/04 14:10:42;;;;;;;;;;;21.10;46.60;;;;;;5037933;28;1269;-64
2021/03/04 14:13:08;;;;;;;;;;;21.10;46.70;;;;;;5045088;28;1380;-63
2021/03/04 14:15:33;;;;;;;;;;;21.10;46.70;;;;;;5034509;28;1941;-64
2021/03/04 14:18:00;;;;;;;;;;;21.10;46.70;;;;;;5034352;28;1255;-64
2021/03/04 14:20:26;;;;;;;;;;;21.10;46.70;;;;;;5034908;28;933;-65
2021/03/04 14:22:51;;;;;;;;;;;21.10;46.70;;;;;;5033393;28;1335;-65